sensor_id;sensor_type;location;lat;lon;timestamp;pressure;altitude;pressure_sealevel;temperature;humidity
42691;BME280;28306;55.744;37.578;2023-02-04T00:00:46;99244.88;;;23.77;20.44
42691;BME280;28306;55.744;37.578;2023-02-04T00:03:15;99247.88;;;23.75;20.33
42691;BME280;28306;55.744;37.578;2023-02-04T00:05:41;99242.44;;;23.75;20.42
42691;BME280;28306;55.744;37.578;2023-02-04T00:08:06;99243.25;;;23.75;20.39
42691;BME280;28306;55.744;37.578;2023-02-04T00:10:32;99247.88;;;23.75;20.61
42691;BME280;28306;55.744;37.578;2023-02-04T00:12:57;99249.47;;;23.76;20.46
42691;BME280;28306;55.744;37.578;2023-02-04T00:15:23;99254.66;;;23.78;20.40
42691;BME280;28306;55.744;37.578;2023-02-04T00:17:48;99246.22;;;23.79;20.29
42691;BME280;28306;55.744;37.578;2023-02-04T00:20:14;99259.81;;;23.79;20.48
42691;BME280;28306;55.744;37.578;2023-02-04T00:22:39;99253.84;;;23.77;20.49
42691;BME280;28306;55.744;37.578;2023-02-04T00:25:05;99254.91;;;23.76;20.43
42691;BME280;28306;55.744;37.578;2023-02-04T00:27:31;99258.72;;;23.75;20.43
42691;BME280;28306;55.744;37.578;2023-02-04T00:29:56;99263.31;;;23.74;20.36
42691;BME280;28306;55.744;37.578;2023-02-04T00:32:22;99263.31;;;23.74;20.40
42691;BME280;28306;55.744;37.578;2023-02-04T00:34:48;99261.44;;;23.75;20.47
42691;BME280;28306;55.744;37.578;2023-02-04T00:37:13;99264.97;;;23.75;20.29
42691;BME280;28306;55.744;37.578;2023-02-04T00:39:39;99260.34;;;23.76;20.60
42691;BME280;28306;55.744;37.578;2023-02-04T00:42:05;99263.06;;;23.76;20.41
42691;BME280;28306;55.744;37.578;2023-02-04T00:44:30;99260.34;;;23.76;20.30
42691;BME280;28306;55.744;37.578;2023-02-04T00:46:56;99264.72;;;23.77;20.33
42691;BME280;28306;55.744;37.578;2023-02-04T00:49:21;99275.56;;;23.77;20.35
42691;BME280;28306;55.744;37.578;2023-02-04T00:51:47;99275.56;;;23.77;20.44
42691;BME280;28306;55.744;37.578;2023-02-04T00:54:13;99276.38;;;23.78;20.47
42691;BME280;28306;55.744;37.578;2023-02-04T00:56:40;99283.72;;;23.77;20.47
42691;BME280;28306;55.744;37.578;2023-02-04T00:59:05;99283.97;;;23.75;20.27
42691;BME280;28306;55.744;37.578;2023-02-04T01:01:31;99280.47;;;23.75;20.60
42691;BME280;28306;55.744;37.578;2023-02-04T01:03:56;99287.78;;;23.74;20.27
42691;BME280;28306;55.744;37.578;2023-02-04T01:06:22;99288.03;;;23.73;20.37
42691;BME280;28306;55.744;37.578;2023-02-04T01:08:47;99288.03;;;23.73;20.27
42691;BME280;28306;55.744;37.578;2023-02-04T01:11:14;99284.25;;;23.74;20.58
42691;BME280;28306;55.744;37.578;2023-02-04T01:13:40;99293.22;;;23.74;20.35
42691;BME280;28306;55.744;37.578;2023-02-04T01:16:06;99290.50;;;23.74;20.37
42691;BME280;28306;55.744;37.578;2023-02-04T01:18:31;99285.91;;;23.75;20.53
42691;BME280;28306;55.744;37.578;2023-02-04T01:20:57;99292.94;;;23.76;20.29
42691;BME280;28306;55.744;37.578;2023-02-04T01:23:22;99292.94;;;23.76;20.22
42691;BME280;28306;55.744;37.578;2023-02-04T01:25:48;99289.41;;;23.75;20.22
42691;BME280;28306;55.744;37.578;2023-02-04T01:28:13;99292.41;;;23.74;20.55
42691;BME280;28306;55.744;37.578;2023-02-04T01:30:38;99296.75;;;23.75;20.28
42691;BME280;28306;55.744;37.578;2023-02-04T01:33:04;99292.13;;;23.75;20.27
42691;BME280;28306;55.744;37.578;2023-02-04T01:35:29;99298.38;;;23.76;20.33
42691;BME280;28306;55.744;37.578;2023-02-04T01:37:55;99304.06;;;23.74;20.17
42691;BME280;28306;55.744;37.578;2023-02-04T01:40:20;99294.03;;;23.75;20.51
42691;BME280;28306;55.744;37.578;2023-02-04T01:42:46;99302.19;;;23.75;20.33
42691;BME280;28306;55.744;37.578;2023-02-04T01:45:12;99314.66;;;23.76;20.41
42691;BME280;28306;55.744;37.578;2023-02-04T01:47:37;99310.06;;;23.77;20.49
42691;BME280;28306;55.744;37.578;2023-02-04T01:50:04;99317.38;;;23.76;20.49
42691;BME280;28306;55.744;37.578;2023-02-04T01:52:33;99314.66;;;23.76;20.27
42691;BME280;28306;55.744;37.578;2023-02-04T01:54:59;99320.09;;;23.76;20.23
42691;BME280;28306;55.744;37.578;2023-02-04T01:57:25;99320.09;;;23.76;20.47
42691;BME280;28306;55.744;37.578;2023-02-04T01:59:51;99327.19;;;23.77;20.49
42691;BME280;28306;55.744;37.578;2023-02-04T02:02:38;99326.38;;;23.77;20.49
42691;BME280;28306;55.744;37.578;2023-02-04T02:05:05;99330.16;;;23.75;20.35
42691;BME280;28306;55.744;37.578;2023-02-04T02:07:31;99327.72;;;23.74;20.35
42691;BME280;28306;55.744;37.578;2023-02-04T02:09:56;99342.38;;;23.73;20.36
42691;BME280;28306;55.744;37.578;2023-02-04T02:12:22;99338.56;;;23.74;20.41
42691;BME280;28306;55.744;37.578;2023-02-04T02:14:47;99338.56;;;23.74;20.35
42691;BME280;28306;55.744;37.578;2023-02-04T02:17:13;99346.47;;;23.75;20.55
42691;BME280;28306;55.744;37.578;2023-02-04T02:19:38;99342.66;;;23.77;20.23
42691;BME280;28306;55.744;37.578;2023-02-04T02:22:10;99351.91;;;23.75;20.46
42691;BME280;28306;55.744;37.578;2023-02-04T02:24:39;99351.09;;;23.75;20.41
42691;BME280;28306;55.744;37.578;2023-02-04T02:27:08;99345.66;;;23.75;20.20
42691;BME280;28306;55.744;37.578;2023-02-04T02:29:34;99348.09;;;23.77;20.17
42691;BME280;28306;55.744;37.578;2023-02-04T02:32:00;99345.13;;;23.78;20.27
42691;BME280;28306;55.744;37.578;2023-02-04T02:34:26;99351.63;;;23.77;20.48
42691;BME280;28306;55.744;37.578;2023-02-04T02:36:52;99343.47;;;23.77;20.23
42691;BME280;28306;55.744;37.578;2023-02-04T02:39:17;99354.34;;;23.77;20.43
42691;BME280;28306;55.744;37.578;2023-02-04T02:41:43;99357.06;;;23.77;20.25
42691;BME280;28306;55.744;37.578;2023-02-04T02:44:10;99352.97;;;23.74;20.17
42691;BME280;28306;55.744;37.578;2023-02-04T02:46:36;99356.78;;;23.73;20.38
42691;BME280;28306;55.744;37.578;2023-02-04T02:49:02;99366.53;;;23.74;20.22
42691;BME280;28306;55.744;37.578;2023-02-04T02:51:28;99360.03;;;23.75;20.34
42691;BME280;28306;55.744;37.578;2023-02-04T02:53:54;99362.75;;;23.75;20.17
42691;BME280;28306;55.744;37.578;2023-02-04T02:56:21;99358.13;;;23.76;20.14
42691;BME280;28306;55.744;37.578;2023-02-04T02:58:46;99364.41;;;23.77;20.17
42691;BME280;28306;55.744;37.578;2023-02-04T03:01:12;99372.56;;;23.77;20.41
42691;BME280;28306;55.744;37.578;2023-02-04T03:03:39;99370.91;;;23.75;20.25
42691;BME280;28306;55.744;37.578;2023-02-04T03:06:11;99371.72;;;23.76;20.17
42691;BME280;28306;55.744;37.578;2023-02-04T03:08:37;99376.06;;;23.77;20.25
42691;BME280;28306;55.744;37.578;2023-02-04T03:11:03;99381.78;;;23.75;20.30
42691;BME280;28306;55.744;37.578;2023-02-04T03:13:29;99388.00;;;23.76;20.33
42691;BME280;28306;55.744;37.578;2023-02-04T03:15:55;99376.34;;;23.75;20.36
42691;BME280;28306;55.744;37.578;2023-02-04T03:18:21;99377.16;;;23.76;20.17
42691;BME280;28306;55.744;37.578;2023-02-04T03:20:47;99390.19;;;23.74;20.40
42691;BME280;28306;55.744;37.578;2023-02-04T03:23:12;99391.25;;;23.73;20.28
42691;BME280;28306;55.744;37.578;2023-02-04T03:25:39;99388.53;;;23.73;20.08
42691;BME280;28306;55.744;37.578;2023-02-04T03:28:05;99384.75;;;23.74;20.41
42691;BME280;28306;55.744;37.578;2023-02-04T03:30:31;99386.66;;;23.73;20.23
42691;BME280;28306;55.744;37.578;2023-02-04T03:32:56;99396.44;;;23.74;20.31
42691;BME280;28306;55.744;37.578;2023-02-04T03:35:22;99401.06;;;23.74;20.08
42691;BME280;28306;55.744;37.578;2023-02-04T03:37:47;99399.97;;;23.75;20.06
42691;BME280;28306;55.744;37.578;2023-02-04T03:40:13;99406.22;;;23.75;20.29
42691;BME280;28306;55.744;37.578;2023-02-04T03:42:38;99400.78;;;23.75;20.36
42691;BME280;28306;55.744;37.578;2023-02-04T03:45:04;99410.84;;;23.75;20.14
42691;BME280;28306;55.744;37.578;2023-02-04T03:47:29;99406.22;;;23.75;20.37
42691;BME280;28306;55.744;37.578;2023-02-04T03:49:55;99403.78;;;23.74;20.17
42691;BME280;28306;55.744;37.578;2023-02-04T03:52:21;99413.00;;;23.73;20.04
42691;BME280;28306;55.744;37.578;2023-02-04T03:54:46;99409.19;;;23.74;20.14
42691;BME280;28306;55.744;37.578;2023-02-04T03:57:12;99415.44;;;23.74;20.43
42691;BME280;28306;55.744;37.578;2023-02-04T03:59:37;99409.19;;;23.74;20.37
42691;BME280;28306;55.744;37.578;2023-02-04T04:02:03;99420.06;;;23.74;20.34
42691;BME280;28306;55.744;37.578;2023-02-04T04:04:29;99419.25;;;23.73;20.07
42691;BME280;28306;55.744;37.578;2023-02-04T04:06:54;99423.03;;;23.72;20.42
42691;BME280;28306;55.744;37.578;2023-02-04T04:09:20;99421.13;;;23.73;20.37
42691;BME280;28306;55.744;37.578;2023-02-04T04:11:45;99418.41;;;23.73;20.24
42691;BME280;28306;55.744;37.578;2023-02-04T04:14:10;99423.84;;;23.73;20.38
42691;BME280;28306;55.744;37.578;2023-02-04T04:16:36;99419.25;;;23.73;20.35
42691;BME280;28306;55.744;37.578;2023-02-04T04:19:01;99430.94;;;23.74;20.36
42691;BME280;28306;55.744;37.578;2023-02-04T04:21:27;99432.84;;;23.73;20.12
42691;BME280;28306;55.744;37.578;2023-02-04T04:23:52;99428.47;;;23.72;20.40
42691;BME280;28306;55.744;37.578;2023-02-04T04:26:18;99437.69;;;23.71;20.29
42691;BME280;28306;55.744;37.578;2023-02-04T04:28:44;99439.34;;;23.72;20.13
42691;BME280;28306;55.744;37.578;2023-02-04T04:31:09;99444.78;;;23.72;20.23
42691;BME280;28306;55.744;37.578;2023-02-04T04:33:35;99443.13;;;23.71;20.36
42691;BME280;28306;55.744;37.578;2023-02-04T04:36:00;99448.56;;;23.71;20.36
42691;BME280;28306;55.744;37.578;2023-02-04T04:38:26;99452.13;;;23.72;20.49
42691;BME280;28306;55.744;37.578;2023-02-04T04:40:51;99445.84;;;23.71;20.48
42691;BME280;28306;55.744;37.578;2023-02-04T04:43:17;99441.50;;;23.70;20.20
42691;BME280;28306;55.744;37.578;2023-02-04T04:45:42;99450.47;;;23.71;20.21
42691;BME280;28306;55.744;37.578;2023-02-04T04:48:08;99448.56;;;23.71;20.25
42691;BME280;28306;55.744;37.578;2023-02-04T04:50:33;99451.28;;;23.71;20.08
42691;BME280;28306;55.744;37.578;2023-02-04T04:52:59;99454.84;;;23.72;20.48
42691;BME280;28306;55.744;37.578;2023-02-04T04:55:24;99459.16;;;23.73;20.23
42691;BME280;28306;55.744;37.578;2023-02-04T04:57:50;99460.00;;;23.73;20.08
42691;BME280;28306;55.744;37.578;2023-02-04T05:00:16;99451.84;;;23.73;20.17
42691;BME280;28306;55.744;37.578;2023-02-04T05:02:42;99467.31;;;23.73;20.35
42691;BME280;28306;55.744;37.578;2023-02-04T05:05:08;99461.06;;;23.72;20.09
42691;BME280;28306;55.744;37.578;2023-02-04T05:07:34;99466.78;;;23.71;20.29
42691;BME280;28306;55.744;37.578;2023-02-04T05:10:00;99472.19;;;23.71;20.50
42691;BME280;28306;55.744;37.578;2023-02-04T05:12:26;99472.75;;;23.73;20.24
42691;BME280;28306;55.744;37.578;2023-02-04T05:14:51;99468.41;;;23.72;20.17
42691;BME280;28306;55.744;37.578;2023-02-04T05:17:17;99473.59;;;23.73;20.44
42691;BME280;28306;55.744;37.578;2023-02-04T05:19:42;99475.47;;;23.73;20.23
42691;BME280;28306;55.744;37.578;2023-02-04T05:22:07;99488.25;;;23.72;20.24
42691;BME280;28306;55.744;37.578;2023-02-04T05:24:33;99487.44;;;23.72;20.30
42691;BME280;28306;55.744;37.578;2023-02-04T05:26:58;99491.22;;;23.71;20.27
42691;BME280;28306;55.744;37.578;2023-02-04T05:29:24;99492.03;;;23.71;20.38
42691;BME280;28306;55.744;37.578;2023-02-04T05:31:49;99493.66;;;23.72;20.38
42691;BME280;28306;55.744;37.578;2023-02-04T05:34:15;99497.19;;;23.73;20.22
42691;BME280;28306;55.744;37.578;2023-02-04T05:36:40;99495.31;;;23.73;20.24
42691;BME280;28306;55.744;37.578;2023-02-04T05:39:06;99503.47;;;23.73;20.49
42691;BME280;28306;55.744;37.578;2023-02-04T05:41:31;99506.19;;;23.73;20.28
42691;BME280;28306;55.744;37.578;2023-02-04T05:43:57;99507.25;;;23.72;20.23
42691;BME280;28306;55.744;37.578;2023-02-04T05:46:22;99507.50;;;23.71;20.17
42691;BME280;28306;55.744;37.578;2023-02-04T05:48:48;99514.59;;;23.72;20.24
42691;BME280;28306;55.744;37.578;2023-02-04T05:51:14;99519.75;;;23.73;20.41
42691;BME280;28306;55.744;37.578;2023-02-04T05:53:39;99519.75;;;23.73;20.42
42691;BME280;28306;55.744;37.578;2023-02-04T05:56:04;99521.66;;;23.73;20.44
42691;BME280;28306;55.744;37.578;2023-02-04T05:58:30;99526.00;;;23.74;20.33
42691;BME280;28306;55.744;37.578;2023-02-04T06:00:58;99532.50;;;23.73;20.25
42691;BME280;28306;55.744;37.578;2023-02-04T06:03:24;99535.22;;;23.73;20.50
42691;BME280;28306;55.744;37.578;2023-02-04T06:05:50;99539.59;;;23.74;20.21
42691;BME280;28306;55.744;37.578;2023-02-04T06:08:15;99541.22;;;23.75;20.14
42691;BME280;28306;55.744;37.578;2023-02-04T06:10:41;99537.69;;;23.74;20.31
42691;BME280;28306;55.744;37.578;2023-02-04T06:13:06;99542.84;;;23.76;20.26
42691;BME280;28306;55.744;37.578;2023-02-04T06:15:32;99546.66;;;23.75;20.42
42691;BME280;28306;55.744;37.578;2023-02-04T06:17:57;99557.28;;;23.77;20.25
42691;BME280;28306;55.744;37.578;2023-02-04T06:20:23;99559.16;;;23.76;20.12
42691;BME280;28306;55.744;37.578;2023-02-04T06:22:48;99561.88;;;23.76;20.40
42691;BME280;28306;55.744;37.578;2023-02-04T06:25:16;99563.53;;;23.77;20.26
42691;BME280;28306;55.744;37.578;2023-02-04T06:27:41;99560.81;;;23.77;20.15
42691;BME280;28306;55.744;37.578;2023-02-04T06:30:07;99562.72;;;23.77;20.35
42691;BME280;28306;55.744;37.578;2023-02-04T06:32:33;99574.38;;;23.77;20.40
42691;BME280;28306;55.744;37.578;2023-02-04T06:34:58;99572.72;;;23.76;20.53
42691;BME280;28306;55.744;37.578;2023-02-04T06:37:24;99570.00;;;23.76;20.33
42691;BME280;28306;55.744;37.578;2023-02-04T06:39:49;99570.84;;;23.77;20.19
42691;BME280;28306;55.744;37.578;2023-02-04T06:42:16;99577.09;;;23.77;20.32
42691;BME280;28306;55.744;37.578;2023-02-04T06:44:41;99586.31;;;23.76;20.17
42691;BME280;28306;55.744;37.578;2023-02-04T06:47:07;99587.16;;;23.77;20.47
42691;BME280;28306;55.744;37.578;2023-02-04T06:49:39;99585.25;;;23.77;20.20
42691;BME280;28306;55.744;37.578;2023-02-04T06:52:04;99590.44;;;23.79;20.55
42691;BME280;28306;55.744;37.578;2023-02-04T06:54:30;99590.16;;;23.80;20.42
42691;BME280;28306;55.744;37.578;2023-02-04T06:56:55;99592.88;;;23.80;20.26
42691;BME280;28306;55.744;37.578;2023-02-04T06:59:27;99592.88;;;23.80;20.43
42691;BME280;28306;55.744;37.578;2023-02-04T07:02:09;99598.06;;;23.82;20.27
42691;BME280;28306;55.744;37.578;2023-02-04T07:04:35;99599.97;;;23.81;20.34
42691;BME280;28306;55.744;37.578;2023-02-04T07:07:01;99597.25;;;23.81;20.36
42691;BME280;28306;55.744;37.578;2023-02-04T07:09:26;99605.41;;;23.81;20.25
42691;BME280;28306;55.744;37.578;2023-02-04T07:11:52;99611.63;;;23.82;20.49
42691;BME280;28306;55.744;37.578;2023-02-04T07:14:21;99607.84;;;23.83;20.39
42691;BME280;28306;55.744;37.578;2023-02-04T07:16:47;99611.38;;;23.83;20.17
42691;BME280;28306;55.744;37.578;2023-02-04T07:19:12;99616.81;;;23.83;20.27
42691;BME280;28306;55.744;37.578;2023-02-04T07:21:38;99617.88;;;23.82;20.40
42691;BME280;28306;55.744;37.578;2023-02-04T07:24:03;99617.88;;;23.82;20.17
42691;BME280;28306;55.744;37.578;2023-02-04T07:26:29;99623.31;;;23.82;20.20
42691;BME280;28306;55.744;37.578;2023-02-04T07:28:54;99633.13;;;23.83;20.55
42691;BME280;28306;55.744;37.578;2023-02-04T07:31:20;99627.13;;;23.81;20.41
42691;BME280;28306;55.744;37.578;2023-02-04T07:33:45;99629.84;;;23.81;20.32
42691;BME280;28306;55.744;37.578;2023-02-04T07:36:11;99629.00;;;23.81;20.35
42691;BME280;28306;55.744;37.578;2023-02-04T07:38:36;99632.56;;;23.81;20.21
42691;BME280;28306;55.744;37.578;2023-02-04T07:41:02;99631.47;;;23.82;20.55
42691;BME280;28306;55.744;37.578;2023-02-04T07:43:27;99634.19;;;23.82;20.53
42691;BME280;28306;55.744;37.578;2023-02-04T07:45:56;99636.09;;;23.82;20.26
42691;BME280;28306;55.744;37.578;2023-02-04T07:48:21;99637.75;;;23.83;20.38
42691;BME280;28306;55.744;37.578;2023-02-04T07:50:47;99641.25;;;23.83;20.39
42691;BME280;28306;55.744;37.578;2023-02-04T07:53:12;99647.28;;;23.85;20.26
42691;BME280;28306;55.744;37.578;2023-02-04T07:55:38;99644.56;;;23.85;20.41
42691;BME280;28306;55.744;37.578;2023-02-04T07:58:04;99647.03;;;23.87;20.50
42691;BME280;28306;55.744;37.578;2023-02-04T08:00:29;99648.41;;;23.89;20.20
42691;BME280;28306;55.744;37.578;2023-02-04T08:02:55;99654.91;;;23.88;20.24
42691;BME280;28306;55.744;37.578;2023-02-04T08:05:20;99649.22;;;23.90;20.27
42691;BME280;28306;55.744;37.578;2023-02-04T08:07:46;99649.50;;;23.88;20.57
42691;BME280;28306;55.744;37.578;2023-02-04T08:10:12;99657.38;;;23.90;20.30
42691;BME280;28306;55.744;37.578;2023-02-04T08:12:38;99653.59;;;23.91;20.46
42691;BME280;28306;55.744;37.578;2023-02-04T08:15:04;99655.25;;;23.92;20.58
42691;BME280;28306;55.744;37.578;2023-02-04T08:17:31;99655.00;;;23.93;20.50
42691;BME280;28306;55.744;37.578;2023-02-04T08:19:57;99657.69;;;23.93;20.41
42691;BME280;28306;55.744;37.578;2023-02-04T08:22:22;99652.81;;;23.96;20.23
42691;BME280;28306;55.744;37.578;2023-02-04T08:24:48;99660.72;;;23.97;20.51
42691;BME280;28306;55.744;37.578;2023-02-04T08:27:13;99666.69;;;23.99;20.27
42691;BME280;28306;55.744;37.578;2023-02-04T08:29:39;99661.84;;;24.01;20.24
42691;BME280;28306;55.744;37.578;2023-02-04T08:32:04;99667.84;;;24.03;20.43
42691;BME280;28306;55.744;37.578;2023-02-04T08:34:30;99670.28;;;24.05;20.43
42691;BME280;28306;55.744;37.578;2023-02-04T08:36:56;99668.38;;;24.05;20.29
42691;BME280;28306;55.744;37.578;2023-02-04T08:39:21;99668.13;;;24.07;20.21
42691;BME280;28306;55.744;37.578;2023-02-04T08:41:47;99674.13;;;24.09;20.21
42691;BME280;28306;55.744;37.578;2023-02-04T08:44:13;99675.22;;;24.08;20.28
42691;BME280;28306;55.744;37.578;2023-02-04T08:46:39;99682.28;;;24.09;20.17
42691;BME280;28306;55.744;37.578;2023-02-04T08:49:04;99673.31;;;24.08;20.17
42691;BME280;28306;55.744;37.578;2023-02-04T08:51:30;99684.72;;;24.10;20.37
42691;BME280;28306;55.744;37.578;2023-02-04T08:53:55;99681.19;;;24.10;20.26
42691;BME280;28306;55.744;37.578;2023-02-04T08:56:20;99682.00;;;24.10;20.41
42691;BME280;28306;55.744;37.578;2023-02-04T08:58:46;99684.47;;;24.12;20.12
42691;BME280;28306;55.744;37.578;2023-02-04T09:01:17;99685.56;;;24.11;20.14
42691;BME280;28306;55.744;37.578;2023-02-04T09:03:42;99683.41;;;24.13;20.36
42691;BME280;28306;55.744;37.578;2023-02-04T09:06:09;99691.28;;;24.15;20.17
42691;BME280;28306;55.744;37.578;2023-02-04T09:08:34;99685.84;;;24.15;20.43
42691;BME280;28306;55.744;37.578;2023-02-04T09:11:00;99686.13;;;24.13;20.34
42691;BME280;28306;55.744;37.578;2023-02-04T09:13:26;99692.09;;;24.15;20.42
42691;BME280;28306;55.744;37.578;2023-02-04T09:15:51;99698.38;;;24.16;20.42
42691;BME280;28306;55.744;37.578;2023-02-04T09:18:17;99691.03;;;24.16;20.15
42691;BME280;28306;55.744;37.578;2023-02-04T09:20:46;99698.69;;;24.19;20.28
42691;BME280;28306;55.744;37.578;2023-02-04T09:23:12;99696.50;;;24.21;20.11
42691;BME280;28306;55.744;37.578;2023-02-04T09:25:38;99703.34;;;24.24;20.16
42691;BME280;28306;55.744;37.578;2023-02-04T09:28:04;99704.97;;;24.25;20.20
42691;BME280;28306;55.744;37.578;2023-02-04T09:30:30;99706.59;;;24.26;20.11
42691;BME280;28306;55.744;37.578;2023-02-04T09:32:55;99710.16;;;24.26;20.31
42691;BME280;28306;55.744;37.578;2023-02-04T09:35:21;99711.22;;;24.25;20.07
42691;BME280;28306;55.744;37.578;2023-02-04T09:37:46;99706.88;;;24.24;20.24
42691;BME280;28306;55.744;37.578;2023-02-04T09:40:16;99710.69;;;24.23;20.16
42691;BME280;28306;55.744;37.578;2023-02-04T09:42:42;99709.84;;;24.23;20.35
42691;BME280;28306;55.744;37.578;2023-02-04T09:45:18;99713.13;;;24.25;20.09
42691;BME280;28306;55.744;37.578;2023-02-04T09:47:46;99713.94;;;24.25;20.24
42691;BME280;28306;55.744;37.578;2023-02-04T09:50:13;99713.94;;;24.25;20.13
42691;BME280;28306;55.744;37.578;2023-02-04T09:52:39;99716.41;;;24.27;20.43
42691;BME280;28306;55.744;37.578;2023-02-04T09:55:07;99721.84;;;24.27;20.23
42691;BME280;28306;55.744;37.578;2023-02-04T09:57:36;99721.59;;;24.28;20.17
42691;BME280;28306;55.744;37.578;2023-02-04T10:00:04;99719.69;;;24.29;20.34
42691;BME280;28306;55.744;37.578;2023-02-04T10:02:30;99719.69;;;24.29;20.45
42691;BME280;28306;55.744;37.578;2023-02-04T10:04:56;99726.22;;;24.28;20.15
42691;BME280;28306;55.744;37.578;2023-02-04T10:07:22;99725.97;;;24.29;20.19
42691;BME280;28306;55.744;37.578;2023-02-04T10:09:51;99725.97;;;24.29;20.22
42691;BME280;28306;55.744;37.578;2023-02-04T10:12:17;99730.56;;;24.29;20.33
42691;BME280;28306;55.744;37.578;2023-02-04T10:14:43;99722.66;;;24.27;20.33
42691;BME280;28306;55.744;37.578;2023-02-04T10:17:08;99730.00;;;24.27;20.21
42691;BME280;28306;55.744;37.578;2023-02-04T10:19:34;99729.19;;;24.26;20.14
42691;BME280;28306;55.744;37.578;2023-02-04T10:21:59;99732.72;;;24.27;20.22
42691;BME280;28306;55.744;37.578;2023-02-04T10:24:30;99737.34;;;24.26;20.26
42691;BME280;28306;55.744;37.578;2023-02-04T10:27:08;99742.78;;;24.26;20.14
42691;BME280;28306;55.744;37.578;2023-02-04T10:29:34;99736.50;;;24.26;20.03
42691;BME280;28306;55.744;37.578;2023-02-04T10:31:59;99738.41;;;24.25;20.07
42691;BME280;28306;55.744;37.578;2023-02-04T10:34:37;99746.31;;;24.27;20.19
42691;BME280;28306;55.744;37.578;2023-02-04T10:37:19;99746.06;;;24.28;20.17
42691;BME280;28306;55.744;37.578;2023-02-04T10:39:45;99748.78;;;24.28;20.12
42691;BME280;28306;55.744;37.578;2023-02-04T10:42:24;99749.31;;;24.31;20.05
42691;BME280;28306;55.744;37.578;2023-02-04T10:44:50;99758.31;;;24.31;20.33
42691;BME280;28306;55.744;37.578;2023-02-04T10:47:18;99763.75;;;24.31;20.07
42691;BME280;28306;55.744;37.578;2023-02-04T10:49:54;99767.28;;;24.32;20.18
42691;BME280;28306;55.744;37.578;2023-02-04T10:52:21;99765.38;;;24.32;20.21
42691;BME280;28306;55.744;37.578;2023-02-04T10:54:48;99770.00;;;24.32;20.16
42691;BME280;28306;55.744;37.578;2023-02-04T10:57:17;99774.38;;;24.33;20.20
42691;BME280;28306;55.744;37.578;2023-02-04T10:59:44;99768.09;;;24.32;20.21
42691;BME280;28306;55.744;37.578;2023-02-04T11:02:39;99775.44;;;24.32;19.99
42691;BME280;28306;55.744;37.578;2023-02-04T11:04:56;99773.81;;;24.31;19.95
42691;BME280;28306;55.744;37.578;2023-02-04T11:07:21;99779.25;;;24.31;19.93
42691;BME280;28306;55.744;37.578;2023-02-04T11:09:47;99780.34;;;24.29;19.94
42691;BME280;28306;55.744;37.578;2023-02-04T11:12:23;99784.13;;;24.28;20.25
42691;BME280;28306;55.744;37.578;2023-02-04T11:14:59;99782.72;;;24.26;20.24
42691;BME280;28306;55.744;37.578;2023-02-04T11:17:28;99788.41;;;24.24;20.07
42691;BME280;28306;55.744;37.578;2023-02-04T11:19:55;99786.81;;;24.23;20.10
42691;BME280;28306;55.744;37.578;2023-02-04T11:22:54;99790.59;;;24.22;20.16
42691;BME280;28306;55.744;37.578;2023-02-04T11:25:30;99798.19;;;24.20;19.90
42691;BME280;28306;55.744;37.578;2023-02-04T11:27:56;99799.00;;;24.21;20.11
42691;BME280;28306;55.744;37.578;2023-02-04T11:30:21;99792.75;;;24.20;20.05
42691;BME280;28306;55.744;37.578;2023-02-04T11:33:03;99791.91;;;24.20;20.32
42691;BME280;28306;55.744;37.578;2023-02-04T11:35:29;99797.59;;;24.18;20.22
42691;BME280;28306;55.744;37.578;2023-02-04T11:37:55;99802.50;;;24.16;20.13
42691;BME280;28306;55.744;37.578;2023-02-04T11:40:22;99804.41;;;24.16;19.97
42691;BME280;28306;55.744;37.578;2023-02-04T11:42:48;99803.56;;;24.15;20.00
42691;BME280;28306;55.744;37.578;2023-02-04T11:45:21;99813.63;;;24.15;20.13
42691;BME280;28306;55.744;37.578;2023-02-04T11:47:48;99811.97;;;24.14;20.17
42691;BME280;28306;55.744;37.578;2023-02-04T11:52:40;99820.38;;;24.12;19.94
42691;BME280;28306;55.744;37.578;2023-02-04T11:55:05;99820.38;;;24.12;19.96
42691;BME280;28306;55.744;37.578;2023-02-04T11:57:41;99823.09;;;24.12;19.97
42691;BME280;28306;55.744;37.578;2023-02-04T12:02:43;99827.47;;;24.13;19.84
42691;BME280;28306;55.744;37.578;2023-02-04T12:05:11;99831.25;;;24.12;19.77
42691;BME280;28306;55.744;37.578;2023-02-04T12:07:37;99833.97;;;24.12;19.85
42691;BME280;28306;55.744;37.578;2023-02-04T12:10:10;99836.69;;;24.12;19.85
42691;BME280;28306;55.744;37.578;2023-02-04T12:12:40;99839.41;;;24.12;19.84
42691;BME280;28306;55.744;37.578;2023-02-04T12:15:13;99841.06;;;24.13;20.07
42691;BME280;28306;55.744;37.578;2023-02-04T12:17:39;99844.59;;;24.14;19.86
42691;BME280;28306;55.744;37.578;2023-02-04T12:20:04;99843.53;;;24.15;19.80
42691;BME280;28306;55.744;37.578;2023-02-04T12:22:30;99852.50;;;24.15;19.97
42691;BME280;28306;55.744;37.578;2023-02-04T12:24:55;99849.78;;;24.15;19.98
42691;BME280;28306;55.744;37.578;2023-02-04T12:27:21;99853.59;;;24.14;20.09
42691;BME280;28306;55.744;37.578;2023-02-04T12:29:47;99857.38;;;24.13;19.82
42691;BME280;28306;55.744;37.578;2023-02-04T12:32:12;99862.00;;;24.13;20.01
42691;BME280;28306;55.744;37.578;2023-02-04T12:34:38;99865.78;;;24.11;19.82
42691;BME280;28306;55.744;37.578;2023-02-04T12:37:03;99862.25;;;24.11;19.93
42691;BME280;28306;55.744;37.578;2023-02-04T12:39:29;99868.75;;;24.10;20.03
42691;BME280;28306;55.744;37.578;2023-02-04T12:41:56;99870.91;;;24.08;19.85
42691;BME280;28306;55.744;37.578;2023-02-04T12:44:21;99869.25;;;24.07;20.14
42691;BME280;28306;55.744;37.578;2023-02-04T12:46:47;99867.84;;;24.04;19.95
42691;BME280;28306;55.744;37.578;2023-02-04T12:49:12;99871.41;;;24.05;19.98
42691;BME280;28306;55.744;37.578;2023-02-04T12:51:38;99871.41;;;24.05;20.19